Date,TemperatureHighF,TemperatureAvgF,TemperatureLowF,DewpointHighF,DewpointAvgF,DewpointLowF,HumidityHigh,HumidityAvg,HumidityLow,PressureMaxIn,PressureMinIn,WindSpeedMaxMPH,WindSpeedAvgMPH,GustSpeedMaxMPH,PrecipitationSumIn
2013-11-1,68.7,58.4,51.6,63.0,49.9,44.5,99,75,49,29.78,29.51,14,4,0,0.53
2013-11-2,59.5,50.0,42.4,46.0,41.4,35.7,90,73,51,30.09,29.78,10,3,0,0.00
2013-11-3,57.0,44.0,36.5,41.9,37.0,34.1,98,78,50,30.34,30.09,6,1,0,0.00
2013-11-4,62.1,48.8,38.1,42.1,38.0,33.3,85,68,44,30.38,30.29,6,2,0,0.00
2013-11-5,70.3,55.1,47.3,40.0,37.0,33.7,73,53,28,30.41,30.24,4,1,0,0.00
2013-11-6,72.5,60.4,49.6,60.4,48.2,33.6,99,66,50,30.24,30.00,17,4,0,0.51
2013-11-7,57.9,45.1,37.2,57.6,37.4,26.3,99,77,45,30.25,30.00,8,3,0,0.47
2013-11-8,55.9,43.5,36.1,31.0,28.8,26.8,75,57,37,30.37,30.23,7,2,0,0.00
2013-11-9,61.3,46.8,31.5,33.5,29.1,26.1,84,54,28,30.24,30.09,16,4,0,0.00
2013-11-10,58.1,45.8,34.2,38.7,31.2,25.7,81,58,34,30.33,30.15,9,3,0,0.00
2013-11-11,62.4,47.0,31.5,41.7,28.8,26.3,84,53,29,30.31,30.09,8,2,0,0.00
2013-11-12,49.3,32.8,23.0,43.8,26.6,18.3,99,79,49,30.57,30.13,7,2,0,0.10
2013-11-13,41.7,31.0,20.5,24.8,20.8,18.0,98,68,45,30.62,30.40,7,2,0,0.02
2013-11-14,56.8,39.4,28.4,25.2,20.9,18.9,69,50,27,30.40,30.18,9,3,0,0.00
2013-11-15,56.1,46.4,35.2,45.8,31.8,19.7,98,59,39,30.20,30.10,9,2,0,0.02
2013-11-16,64.8,53.7,43.7,55.2,50.4,43.4,99,89,71,30.16,29.96,16,2,0,0.00
2013-11-17,64.8,61.3,52.3,63.9,57.2,45.6,99,87,70,29.95,29.66,17,6,0,0.81
2013-11-18,56.7,48.1,37.2,45.6,37.2,28.0,90,67,41,30.16,29.84,18,4,0,0.00
2013-11-19,43.9,35.5,28.2,30.4,27.9,26.2,93,74,57,30.29,30.15,7,2,0,0.00
2013-11-20,57.6,40.4,28.8,32.3,28.5,24.6,85,65,37,30.30,30.20,8,2,0,0.00
2013-11-21,62.1,49.6,39.6,50.9,37.2,29.5,79,63,53,30.32,30.18,9,2,0,0.00
2013-11-22,57.2,52.4,41.2,56.9,51.5,38.1,99,97,80,30.30,30.15,9,4,0,0.48
2013-11-23,42.8,34.6,23.0,37.2,25.8,13.2,90,72,37,30.48,30.28,13,4,0,0.00
2013-11-24,31.8,22.4,14.4,18.4,9.9,5.8,81,60,38,30.64,30.47,6,2,0,0.00
2013-11-25,43.9,31.4,19.0,32.5,17.5,11.5,99,59,36,30.48,30.18,8,2,0,0.00
2013-11-26,36.0,33.4,30.7,35.7,33.1,30.5,99,99,98,30.18,29.86,5,2,0,0.55
2013-11-27,30.7,26.7,18.0,30.5,23.8,17.0,99,89,74,30.28,29.87,9,3,0,0.00
2013-11-28,36.9,25.6,16.2,22.7,18.7,14.0,96,76,52,30.44,30.28,11,3,0,0.01
2013-11-29,45.5,31.9,22.1,27.0,22.6,17.7,87,70,47,30.57,30.43,5,1,0,0.08
2013-11-30,55.4,38.1,24.3,32.9,27.2,21.8,91,67,40,30.47,30.21,11,2,0,0.00